sensor_id;sensor_type;location;lat;lon;timestamp;P1;durP1;ratioP1;P2;durP2;ratioP2
31262;SDS011;17892;52.080;9.006;2023-02-15T00:01:42;13.07;;;6.80;;
31262;SDS011;17892;52.080;9.006;2023-02-15T00:04:09;14.15;;;7.45;;
31262;SDS011;17892;52.080;9.006;2023-02-15T00:09:03;11.98;;;6.03;;
31262;SDS011;17892;52.080;9.006;2023-02-15T00:11:29;9.25;;;5.47;;
31262;SDS011;17892;52.080;9.006;2023-02-15T00:16:39;12.27;;;6.22;;
31262;SDS011;17892;52.080;9.006;2023-02-15T00:19:08;11.60;;;5.95;;
31262;SDS011;17892;52.080;9.006;2023-02-15T00:21:35;11.68;;;6.13;;
31262;SDS011;17892;52.080;9.006;2023-02-15T00:24:03;12.50;;;7.15;;
31262;SDS011;17892;52.080;9.006;2023-02-15T00:26:31;13.70;;;6.35;;
31262;SDS011;17892;52.080;9.006;2023-02-15T00:28:57;11.98;;;6.13;;
31262;SDS011;17892;52.080;9.006;2023-02-15T00:31:24;10.57;;;5.25;;
31262;SDS011;17892;52.080;9.006;2023-02-15T00:33:50;10.27;;;5.30;;
31262;SDS011;17892;52.080;9.006;2023-02-15T00:36:16;12.02;;;6.38;;
31262;SDS011;17892;52.080;9.006;2023-02-15T00:38:41;15.45;;;7.43;;
31262;SDS011;17892;52.080;9.006;2023-02-15T00:41:07;15.50;;;7.70;;
31262;SDS011;17892;52.080;9.006;2023-02-15T00:43:34;14.98;;;7.35;;
31262;SDS011;17892;52.080;9.006;2023-02-15T00:46:01;12.95;;;5.90;;
31262;SDS011;17892;52.080;9.006;2023-02-15T00:48:28;13.73;;;7.03;;
31262;SDS011;17892;52.080;9.006;2023-02-15T00:50:55;12.95;;;6.53;;
31262;SDS011;17892;52.080;9.006;2023-02-15T00:53:23;18.05;;;7.75;;
31262;SDS011;17892;52.080;9.006;2023-02-15T00:55:50;15.20;;;8.02;;
31262;SDS011;17892;52.080;9.006;2023-02-15T00:58:16;14.82;;;7.95;;
31262;SDS011;17892;52.080;9.006;2023-02-15T01:00:42;12.95;;;6.47;;
31262;SDS011;17892;52.080;9.006;2023-02-15T01:03:10;14.30;;;7.18;;
31262;SDS011;17892;52.080;9.006;2023-02-15T01:05:37;14.95;;;7.13;;
31262;SDS011;17892;52.080;9.006;2023-02-15T01:08:03;11.00;;;6.10;;
31262;SDS011;17892;52.080;9.006;2023-02-15T01:10:29;11.23;;;6.07;;
31262;SDS011;17892;52.080;9.006;2023-02-15T01:12:55;12.10;;;5.95;;
31262;SDS011;17892;52.080;9.006;2023-02-15T01:15:22;10.73;;;5.50;;
31262;SDS011;17892;52.080;9.006;2023-02-15T01:17:48;14.23;;;7.20;;
31262;SDS011;17892;52.080;9.006;2023-02-15T01:20:18;11.57;;;6.22;;
31262;SDS011;17892;52.080;9.006;2023-02-15T01:22:45;10.73;;;5.65;;
31262;SDS011;17892;52.080;9.006;2023-02-15T01:25:11;10.13;;;5.63;;
31262;SDS011;17892;52.080;9.006;2023-02-15T01:27:37;11.10;;;5.43;;
31262;SDS011;17892;52.080;9.006;2023-02-15T01:30:03;12.30;;;5.85;;
31262;SDS011;17892;52.080;9.006;2023-02-15T01:32:29;12.65;;;6.85;;
31262;SDS011;17892;52.080;9.006;2023-02-15T01:34:56;10.73;;;5.70;;
31262;SDS011;17892;52.080;9.006;2023-02-15T01:37:22;12.05;;;5.90;;
31262;SDS011;17892;52.080;9.006;2023-02-15T01:39:47;12.68;;;6.63;;
31262;SDS011;17892;52.080;9.006;2023-02-15T01:42:13;11.80;;;6.45;;
31262;SDS011;17892;52.080;9.006;2023-02-15T01:47:20;15.05;;;7.72;;
31262;SDS011;17892;52.080;9.006;2023-02-15T01:50:04;17.20;;;8.50;;
31262;SDS011;17892;52.080;9.006;2023-02-15T01:52:40;15.10;;;8.20;;
31262;SDS011;17892;52.080;9.006;2023-02-15T01:55:20;18.60;;;7.95;;
31262;SDS011;17892;52.080;9.006;2023-02-15T01:57:49;11.02;;;5.85;;
31262;SDS011;17892;52.080;9.006;2023-02-15T02:00:16;14.18;;;7.55;;
31262;SDS011;17892;52.080;9.006;2023-02-15T02:02:43;16.95;;;7.93;;
31262;SDS011;17892;52.080;9.006;2023-02-15T02:05:12;15.50;;;7.90;;
31262;SDS011;17892;52.080;9.006;2023-02-15T02:07:38;16.15;;;8.30;;
31262;SDS011;17892;52.080;9.006;2023-02-15T02:12:35;19.30;;;8.43;;
31262;SDS011;17892;52.080;9.006;2023-02-15T02:15:04;17.52;;;8.85;;
31262;SDS011;17892;52.080;9.006;2023-02-15T02:17:34;14.02;;;7.53;;
31262;SDS011;17892;52.080;9.006;2023-02-15T02:34:32;17.30;;;7.78;;
31262;SDS011;17892;52.080;9.006;2023-02-15T02:39:53;15.32;;;7.45;;
31262;SDS011;17892;52.080;9.006;2023-02-15T02:42:42;13.57;;;6.28;;
31262;SDS011;17892;52.080;9.006;2023-02-15T02:45:23;13.73;;;6.97;;
31262;SDS011;17892;52.080;9.006;2023-02-15T02:50:41;19.20;;;8.90;;
31262;SDS011;17892;52.080;9.006;2023-02-15T02:53:06;17.58;;;8.98;;
31262;SDS011;17892;52.080;9.006;2023-02-15T02:55:37;14.98;;;7.93;;
31262;SDS011;17892;52.080;9.006;2023-02-15T02:58:20;21.27;;;9.98;;
31262;SDS011;17892;52.080;9.006;2023-02-15T03:00:53;12.85;;;6.68;;
31262;SDS011;17892;52.080;9.006;2023-02-15T03:03:32;16.60;;;8.50;;
31262;SDS011;17892;52.080;9.006;2023-02-15T03:06:06;15.05;;;7.72;;
31262;SDS011;17892;52.080;9.006;2023-02-15T03:08:48;19.45;;;8.48;;
31262;SDS011;17892;52.080;9.006;2023-02-15T03:11:24;16.75;;;7.47;;
31262;SDS011;17892;52.080;9.006;2023-02-15T03:13:50;14.30;;;6.75;;
31262;SDS011;17892;52.080;9.006;2023-02-15T03:16:16;14.07;;;6.45;;
31262;SDS011;17892;52.080;9.006;2023-02-15T03:19:00;13.93;;;7.22;;
31262;SDS011;17892;52.080;9.006;2023-02-15T03:21:50;17.30;;;8.57;;
31262;SDS011;17892;52.080;9.006;2023-02-15T03:24:29;14.15;;;6.88;;
31262;SDS011;17892;52.080;9.006;2023-02-15T03:27:02;14.52;;;6.85;;
31262;SDS011;17892;52.080;9.006;2023-02-15T03:29:33;15.82;;;7.53;;
31262;SDS011;17892;52.080;9.006;2023-02-15T03:32:02;20.15;;;10.27;;
31262;SDS011;17892;52.080;9.006;2023-02-15T03:34:32;15.57;;;7.40;;
31262;SDS011;17892;52.080;9.006;2023-02-15T03:42:51;17.92;;;8.82;;
31262;SDS011;17892;52.080;9.006;2023-02-15T03:45:27;13.88;;;6.68;;
31262;SDS011;17892;52.080;9.006;2023-02-15T03:47:56;14.05;;;6.20;;
31262;SDS011;17892;52.080;9.006;2023-02-15T03:50:31;12.55;;;6.68;;
31262;SDS011;17892;52.080;9.006;2023-02-15T03:53:19;19.33;;;8.88;;
31262;SDS011;17892;52.080;9.006;2023-02-15T03:55:48;14.45;;;7.13;;
31262;SDS011;17892;52.080;9.006;2023-02-15T03:58:17;15.98;;;7.32;;
31262;SDS011;17892;52.080;9.006;2023-02-15T04:01:04;11.93;;;5.70;;
31262;SDS011;17892;52.080;9.006;2023-02-15T04:03:59;13.63;;;6.57;;
31262;SDS011;17892;52.080;9.006;2023-02-15T04:06:35;13.63;;;5.97;;
31262;SDS011;17892;52.080;9.006;2023-02-15T04:09:01;16.35;;;7.55;;
31262;SDS011;17892;52.080;9.006;2023-02-15T04:11:45;16.73;;;8.13;;
31262;SDS011;17892;52.080;9.006;2023-02-15T04:14:10;12.13;;;6.10;;
31262;SDS011;17892;52.080;9.006;2023-02-15T04:16:54;16.63;;;7.53;;
31262;SDS011;17892;52.080;9.006;2023-02-15T04:19:20;19.67;;;7.38;;
31262;SDS011;17892;52.080;9.006;2023-02-15T04:22:04;12.98;;;5.90;;
31262;SDS011;17892;52.080;9.006;2023-02-15T04:24:48;17.45;;;7.78;;
31262;SDS011;17892;52.080;9.006;2023-02-15T04:27:33;16.65;;;7.25;;
31262;SDS011;17892;52.080;9.006;2023-02-15T04:29:58;16.02;;;6.60;;
31262;SDS011;17892;52.080;9.006;2023-02-15T04:32:24;14.57;;;6.28;;
31262;SDS011;17892;52.080;9.006;2023-02-15T04:34:50;17.00;;;7.32;;
31262;SDS011;17892;52.080;9.006;2023-02-15T04:37:15;16.17;;;7.57;;
31262;SDS011;17892;52.080;9.006;2023-02-15T04:39:41;22.65;;;8.85;;
31262;SDS011;17892;52.080;9.006;2023-02-15T04:42:07;13.70;;;6.35;;
31262;SDS011;17892;52.080;9.006;2023-02-15T04:44:32;8.55;;;3.95;;
31262;SDS011;17892;52.080;9.006;2023-02-15T04:46:59;14.95;;;6.82;;
31262;SDS011;17892;52.080;9.006;2023-02-15T04:49:25;12.65;;;5.95;;
31262;SDS011;17892;52.080;9.006;2023-02-15T04:51:50;15.00;;;7.13;;
31262;SDS011;17892;52.080;9.006;2023-02-15T04:54:16;15.60;;;6.57;;
31262;SDS011;17892;52.080;9.006;2023-02-15T04:56:42;13.20;;;5.57;;
31262;SDS011;17892;52.080;9.006;2023-02-15T04:59:11;11.55;;;5.75;;
31262;SDS011;17892;52.080;9.006;2023-02-15T05:01:38;9.48;;;5.30;;
31262;SDS011;17892;52.080;9.006;2023-02-15T05:04:03;11.80;;;5.38;;
31262;SDS011;17892;52.080;9.006;2023-02-15T05:06:29;17.02;;;7.10;;
31262;SDS011;17892;52.080;9.006;2023-02-15T05:08:55;16.27;;;8.45;;
31262;SDS011;17892;52.080;9.006;2023-02-15T05:11:23;17.25;;;6.03;;
31262;SDS011;17892;52.080;9.006;2023-02-15T05:13:49;14.77;;;6.53;;
31262;SDS011;17892;52.080;9.006;2023-02-15T05:16:15;13.25;;;5.70;;
31262;SDS011;17892;52.080;9.006;2023-02-15T05:18:41;10.98;;;5.28;;
31262;SDS011;17892;52.080;9.006;2023-02-15T05:21:07;6.85;;;3.40;;
31262;SDS011;17892;52.080;9.006;2023-02-15T05:23:32;14.13;;;6.30;;
31262;SDS011;17892;52.080;9.006;2023-02-15T05:25:58;12.02;;;5.78;;
31262;SDS011;17892;52.080;9.006;2023-02-15T05:28:42;15.73;;;7.15;;
31262;SDS011;17892;52.080;9.006;2023-02-15T05:31:16;19.33;;;6.97;;
31262;SDS011;17892;52.080;9.006;2023-02-15T05:33:43;18.55;;;6.55;;
31262;SDS011;17892;52.080;9.006;2023-02-15T05:36:09;13.70;;;4.93;;
31262;SDS011;17892;52.080;9.006;2023-02-15T05:38:36;12.98;;;6.43;;
31262;SDS011;17892;52.080;9.006;2023-02-15T05:41:04;14.93;;;7.03;;
31262;SDS011;17892;52.080;9.006;2023-02-15T05:43:34;13.63;;;5.95;;
31262;SDS011;17892;52.080;9.006;2023-02-15T05:46:01;8.73;;;3.75;;
31262;SDS011;17892;52.080;9.006;2023-02-15T05:48:27;11.80;;;4.28;;
31262;SDS011;17892;52.080;9.006;2023-02-15T05:51:00;8.77;;;4.28;;
31262;SDS011;17892;52.080;9.006;2023-02-15T05:53:33;8.23;;;3.90;;
31262;SDS011;17892;52.080;9.006;2023-02-15T05:56:01;8.02;;;3.78;;
31262;SDS011;17892;52.080;9.006;2023-02-15T05:58:30;12.55;;;4.20;;
31262;SDS011;17892;52.080;9.006;2023-02-15T06:01:08;11.60;;;5.05;;
31262;SDS011;17892;52.080;9.006;2023-02-15T06:03:38;10.32;;;5.30;;
31262;SDS011;17892;52.080;9.006;2023-02-15T06:06:04;13.40;;;5.85;;
31262;SDS011;17892;52.080;9.006;2023-02-15T06:08:31;9.88;;;4.75;;
31262;SDS011;17892;52.080;9.006;2023-02-15T06:10:59;9.85;;;4.65;;
31262;SDS011;17892;52.080;9.006;2023-02-15T06:13:25;10.32;;;4.03;;
31262;SDS011;17892;52.080;9.006;2023-02-15T06:15:51;9.23;;;4.65;;
31262;SDS011;17892;52.080;9.006;2023-02-15T06:18:17;10.23;;;4.35;;
31262;SDS011;17892;52.080;9.006;2023-02-15T06:20:44;12.55;;;4.50;;
31262;SDS011;17892;52.080;9.006;2023-02-15T06:23:11;10.25;;;4.10;;
31262;SDS011;17892;52.080;9.006;2023-02-15T06:25:37;9.35;;;4.38;;
31262;SDS011;17892;52.080;9.006;2023-02-15T06:28:03;8.38;;;3.65;;
31262;SDS011;17892;52.080;9.006;2023-02-15T06:30:29;9.30;;;3.65;;
31262;SDS011;17892;52.080;9.006;2023-02-15T06:32:54;7.03;;;2.47;;
31262;SDS011;17892;52.080;9.006;2023-02-15T06:35:20;12.18;;;4.70;;
31262;SDS011;17892;52.080;9.006;2023-02-15T06:37:46;15.43;;;4.97;;
31262;SDS011;17892;52.080;9.006;2023-02-15T06:40:12;15.50;;;5.68;;
31262;SDS011;17892;52.080;9.006;2023-02-15T06:42:39;8.07;;;3.30;;
31262;SDS011;17892;52.080;9.006;2023-02-15T06:45:05;10.30;;;5.20;;
31262;SDS011;17892;52.080;9.006;2023-02-15T06:47:31;11.05;;;5.40;;
31262;SDS011;17892;52.080;9.006;2023-02-15T06:49:56;8.27;;;4.47;;
31262;SDS011;17892;52.080;9.006;2023-02-15T06:52:22;12.80;;;5.82;;
31262;SDS011;17892;52.080;9.006;2023-02-15T06:54:48;11.40;;;5.50;;
31262;SDS011;17892;52.080;9.006;2023-02-15T06:57:14;18.05;;;6.15;;
31262;SDS011;17892;52.080;9.006;2023-02-15T06:59:39;19.63;;;6.38;;
31262;SDS011;17892;52.080;9.006;2023-02-15T07:02:05;18.40;;;6.90;;
31262;SDS011;17892;52.080;9.006;2023-02-15T07:04:31;12.10;;;5.53;;
31262;SDS011;17892;52.080;9.006;2023-02-15T07:06:57;15.27;;;6.35;;
31262;SDS011;17892;52.080;9.006;2023-02-15T07:09:22;14.68;;;6.50;;
31262;SDS011;17892;52.080;9.006;2023-02-15T07:11:48;14.35;;;5.63;;
31262;SDS011;17892;52.080;9.006;2023-02-15T07:14:33;15.13;;;6.10;;
31262;SDS011;17892;52.080;9.006;2023-02-15T07:16:58;11.82;;;5.93;;
31262;SDS011;17892;52.080;9.006;2023-02-15T07:19:24;9.10;;;4.13;;
31262;SDS011;17892;52.080;9.006;2023-02-15T07:21:50;9.93;;;4.65;;
31262;SDS011;17892;52.080;9.006;2023-02-15T07:24:16;9.40;;;3.25;;
31262;SDS011;17892;52.080;9.006;2023-02-15T07:26:42;9.95;;;5.00;;
31262;SDS011;17892;52.080;9.006;2023-02-15T07:29:07;8.77;;;5.03;;
31262;SDS011;17892;52.080;9.006;2023-02-15T07:31:33;9.60;;;5.15;;
31262;SDS011;17892;52.080;9.006;2023-02-15T07:33:59;11.38;;;4.28;;
31262;SDS011;17892;52.080;9.006;2023-02-15T07:36:24;9.63;;;4.60;;
31262;SDS011;17892;52.080;9.006;2023-02-15T07:38:50;8.65;;;4.38;;
31262;SDS011;17892;52.080;9.006;2023-02-15T07:41:16;10.35;;;4.30;;
31262;SDS011;17892;52.080;9.006;2023-02-15T07:43:43;10.57;;;5.05;;
31262;SDS011;17892;52.080;9.006;2023-02-15T07:46:13;16.17;;;7.10;;
31262;SDS011;17892;52.080;9.006;2023-02-15T07:48:42;14.65;;;6.30;;
31262;SDS011;17892;52.080;9.006;2023-02-15T07:51:09;12.20;;;5.85;;
31262;SDS011;17892;52.080;9.006;2023-02-15T07:53:36;12.77;;;5.65;;
31262;SDS011;17892;52.080;9.006;2023-02-15T07:56:04;13.88;;;6.70;;
31262;SDS011;17892;52.080;9.006;2023-02-15T07:58:34;17.80;;;6.10;;
31262;SDS011;17892;52.080;9.006;2023-02-15T08:01:15;21.02;;;7.22;;
31262;SDS011;17892;52.080;9.006;2023-02-15T08:03:45;13.93;;;5.97;;
31262;SDS011;17892;52.080;9.006;2023-02-15T08:06:11;15.13;;;7.82;;
31262;SDS011;17892;52.080;9.006;2023-02-15T08:08:38;14.05;;;5.35;;
31262;SDS011;17892;52.080;9.006;2023-02-15T08:13:54;11.93;;;5.47;;
31262;SDS011;17892;52.080;9.006;2023-02-15T08:16:42;11.20;;;5.07;;
31262;SDS011;17892;52.080;9.006;2023-02-15T08:19:12;9.73;;;4.35;;
31262;SDS011;17892;52.080;9.006;2023-02-15T08:21:48;11.07;;;5.40;;
31262;SDS011;17892;52.080;9.006;2023-02-15T08:24:22;12.35;;;5.53;;
31262;SDS011;17892;52.080;9.006;2023-02-15T08:26:54;11.93;;;5.32;;
31262;SDS011;17892;52.080;9.006;2023-02-15T08:29:21;8.18;;;4.55;;
31262;SDS011;17892;52.080;9.006;2023-02-15T08:31:50;10.15;;;5.15;;
31262;SDS011;17892;52.080;9.006;2023-02-15T08:34:20;13.65;;;5.85;;
31262;SDS011;17892;52.080;9.006;2023-02-15T08:36:46;12.20;;;6.72;;
31262;SDS011;17892;52.080;9.006;2023-02-15T08:39:12;11.05;;;5.80;;
31262;SDS011;17892;52.080;9.006;2023-02-15T08:41:41;21.88;;;8.57;;
31262;SDS011;17892;52.080;9.006;2023-02-15T08:44:09;14.10;;;6.88;;
31262;SDS011;17892;52.080;9.006;2023-02-15T08:46:39;17.67;;;7.38;;
31262;SDS011;17892;52.080;9.006;2023-02-15T08:49:08;16.88;;;7.75;;
31262;SDS011;17892;52.080;9.006;2023-02-15T08:51:37;17.60;;;7.55;;
31262;SDS011;17892;52.080;9.006;2023-02-15T08:54:05;21.05;;;7.53;;
31262;SDS011;17892;52.080;9.006;2023-02-15T08:56:35;12.75;;;5.90;;
31262;SDS011;17892;52.080;9.006;2023-02-15T08:59:04;18.38;;;7.78;;
31262;SDS011;17892;52.080;9.006;2023-02-15T09:01:32;14.60;;;6.97;;
31262;SDS011;17892;52.080;9.006;2023-02-15T09:04:00;14.40;;;6.75;;
31262;SDS011;17892;52.080;9.006;2023-02-15T09:06:36;15.35;;;7.00;;
31262;SDS011;17892;52.080;9.006;2023-02-15T09:09:02;13.50;;;6.43;;
31262;SDS011;17892;52.080;9.006;2023-02-15T09:11:29;14.10;;;6.65;;
31262;SDS011;17892;52.080;9.006;2023-02-15T09:14:00;14.32;;;6.45;;
31262;SDS011;17892;52.080;9.006;2023-02-15T09:19:02;14.48;;;6.18;;
31262;SDS011;17892;52.080;9.006;2023-02-15T09:21:30;13.35;;;6.72;;
31262;SDS011;17892;52.080;9.006;2023-02-15T09:23:58;13.25;;;5.70;;
31262;SDS011;17892;52.080;9.006;2023-02-15T09:26:27;10.75;;;4.95;;
31262;SDS011;17892;52.080;9.006;2023-02-15T09:28:56;11.07;;;5.40;;
31262;SDS011;17892;52.080;9.006;2023-02-15T09:31:26;13.00;;;6.47;;
31262;SDS011;17892;52.080;9.006;2023-02-15T09:33:59;11.77;;;5.75;;
31262;SDS011;17892;52.080;9.006;2023-02-15T09:36:27;11.13;;;5.60;;
31262;SDS011;17892;52.080;9.006;2023-02-15T09:39:07;11.73;;;5.75;;
31262;SDS011;17892;52.080;9.006;2023-02-15T09:44:27;10.82;;;5.97;;
31262;SDS011;17892;52.080;9.006;2023-02-15T09:50:11;12.13;;;6.45;;
31262;SDS011;17892;52.080;9.006;2023-02-15T09:56:30;10.93;;;6.30;;
31262;SDS011;17892;52.080;9.006;2023-02-15T10:01:53;10.93;;;6.18;;
31262;SDS011;17892;52.080;9.006;2023-02-15T10:05:01;11.82;;;6.07;;
31262;SDS011;17892;52.080;9.006;2023-02-15T10:26:18;12.63;;;6.78;;
31262;SDS011;17892;52.080;9.006;2023-02-15T10:37:31;12.13;;;6.28;;
31262;SDS011;17892;52.080;9.006;2023-02-15T10:40:27;12.48;;;6.57;;
31262;SDS011;17892;52.080;9.006;2023-02-15T10:43:39;12.90;;;7.25;;
31262;SDS011;17892;52.080;9.006;2023-02-15T10:52:10;12.38;;;6.55;;
31262;SDS011;17892;52.080;9.006;2023-02-15T10:55:37;11.27;;;6.25;;
31262;SDS011;17892;52.080;9.006;2023-02-15T10:58:06;12.48;;;7.20;;
31262;SDS011;17892;52.080;9.006;2023-02-15T11:00:55;11.93;;;6.68;;
31262;SDS011;17892;52.080;9.006;2023-02-15T11:06:49;11.70;;;7.00;;
31262;SDS011;17892;52.080;9.006;2023-02-15T11:09:19;10.40;;;5.70;;
31262;SDS011;17892;52.080;9.006;2023-02-15T11:11:53;9.48;;;5.38;;
31262;SDS011;17892;52.080;9.006;2023-02-15T11:17:08;9.63;;;5.57;;
31262;SDS011;17892;52.080;9.006;2023-02-15T11:22:40;10.20;;;5.10;;
31262;SDS011;17892;52.080;9.006;2023-02-15T11:25:14;8.38;;;4.90;;
31262;SDS011;17892;52.080;9.006;2023-02-15T11:27:46;7.50;;;4.53;;
31262;SDS011;17892;52.080;9.006;2023-02-15T11:30:14;7.97;;;4.43;;
31262;SDS011;17892;52.080;9.006;2023-02-15T11:38:21;7.45;;;4.28;;
31262;SDS011;17892;52.080;9.006;2023-02-15T11:41:24;7.53;;;4.45;;
31262;SDS011;17892;52.080;9.006;2023-02-15T11:43:50;6.95;;;4.35;;
31262;SDS011;17892;52.080;9.006;2023-02-15T11:46:26;8.05;;;4.63;;
31262;SDS011;17892;52.080;9.006;2023-02-15T11:48:52;8.98;;;4.70;;
31262;SDS011;17892;52.080;9.006;2023-02-15T11:51:18;9.05;;;5.10;;
31262;SDS011;17892;52.080;9.006;2023-02-15T11:53:47;9.20;;;5.57;;
31262;SDS011;17892;52.080;9.006;2023-02-15T11:56:23;9.73;;;5.22;;
31262;SDS011;17892;52.080;9.006;2023-02-15T11:59:01;9.82;;;5.47;;
31262;SDS011;17892;52.080;9.006;2023-02-15T12:01:44;8.65;;;5.03;;
31262;SDS011;17892;52.080;9.006;2023-02-15T12:04:20;8.32;;;4.72;;
31262;SDS011;17892;52.080;9.006;2023-02-15T12:07:21;7.60;;;4.43;;
31262;SDS011;17892;52.080;9.006;2023-02-15T12:09:55;7.72;;;4.80;;
31262;SDS011;17892;52.080;9.006;2023-02-15T12:12:43;6.55;;;3.90;;
31262;SDS011;17892;52.080;9.006;2023-02-15T12:15:10;6.15;;;3.72;;
31262;SDS011;17892;52.080;9.006;2023-02-15T12:17:42;5.88;;;3.72;;
31262;SDS011;17892;52.080;9.006;2023-02-15T12:22:51;7.47;;;4.55;;
31262;SDS011;17892;52.080;9.006;2023-02-15T12:25:29;6.55;;;4.05;;
31262;SDS011;17892;52.080;9.006;2023-02-15T12:28:02;6.43;;;3.75;;
31262;SDS011;17892;52.080;9.006;2023-02-15T12:30:31;8.10;;;5.28;;
31262;SDS011;17892;52.080;9.006;2023-02-15T12:35:54;7.97;;;5.13;;
31262;SDS011;17892;52.080;9.006;2023-02-15T12:38:37;7.95;;;4.43;;
31262;SDS011;17892;52.080;9.006;2023-02-15T12:41:22;7.20;;;4.35;;
31262;SDS011;17892;52.080;9.006;2023-02-15T12:44:05;7.25;;;4.70;;
31262;SDS011;17892;52.080;9.006;2023-02-15T12:49:35;8.77;;;5.00;;
31262;SDS011;17892;52.080;9.006;2023-02-15T12:52:10;7.97;;;4.90;;
31262;SDS011;17892;52.080;9.006;2023-02-15T12:54:50;8.25;;;5.28;;
31262;SDS011;17892;52.080;9.006;2023-02-15T12:59:59;6.90;;;4.38;;
31262;SDS011;17892;52.080;9.006;2023-02-15T13:05:51;7.93;;;4.70;;
31262;SDS011;17892;52.080;9.006;2023-02-15T13:08:04;7.97;;;4.53;;
31262;SDS011;17892;52.080;9.006;2023-02-15T13:11:00;5.97;;;3.97;;
31262;SDS011;17892;52.080;9.006;2023-02-15T13:13:32;7.75;;;4.55;;
31262;SDS011;17892;52.080;9.006;2023-02-15T13:16:09;8.13;;;4.78;;
31262;SDS011;17892;52.080;9.006;2023-02-15T13:18:38;8.15;;;4.53;;
31262;SDS011;17892;52.080;9.006;2023-02-15T13:21:13;7.18;;;4.43;;
31262;SDS011;17892;52.080;9.006;2023-02-15T13:26:20;7.28;;;3.97;;
31262;SDS011;17892;52.080;9.006;2023-02-15T13:28:55;7.85;;;5.05;;
31262;SDS011;17892;52.080;9.006;2023-02-15T13:31:25;7.80;;;5.07;;
31262;SDS011;17892;52.080;9.006;2023-02-15T13:33:59;7.80;;;4.72;;
31262;SDS011;17892;52.080;9.006;2023-02-15T13:42:41;7.93;;;4.57;;
31262;SDS011;17892;52.080;9.006;2023-02-15T13:54:53;9.30;;;4.72;;
31262;SDS011;17892;52.080;9.006;2023-02-15T14:14:35;10.15;;;5.75;;
31262;SDS011;17892;52.080;9.006;2023-02-15T14:17:39;9.15;;;5.28;;
31262;SDS011;17892;52.080;9.006;2023-02-15T14:29:46;10.35;;;5.78;;
31262;SDS011;17892;52.080;9.006;2023-02-15T14:34:58;10.55;;;5.63;;
31262;SDS011;17892;52.080;9.006;2023-02-15T14:37:37;9.02;;;5.10;;
31262;SDS011;17892;52.080;9.006;2023-02-15T14:40:33;11.93;;;6.07;;
31262;SDS011;17892;52.080;9.006;2023-02-15T14:54:11;9.02;;;5.47;;
31262;SDS011;17892;52.080;9.006;2023-02-15T15:05:08;12.05;;;5.97;;
31262;SDS011;17892;52.080;9.006;2023-02-15T15:07:44;10.32;;;6.00;;
31262;SDS011;17892;52.080;9.006;2023-02-15T15:12:45;9.63;;;5.25;;
31262;SDS011;17892;52.080;9.006;2023-02-15T15:15:33;10.32;;;5.93;;
31262;SDS011;17892;52.080;9.006;2023-02-15T15:18:42;9.73;;;5.28;;
31262;SDS011;17892;52.080;9.006;2023-02-15T15:38:47;8.48;;;4.88;;
31262;SDS011;17892;52.080;9.006;2023-02-15T15:50:26;10.90;;;6.18;;
31262;SDS011;17892;52.080;9.006;2023-02-15T15:52:53;8.68;;;5.40;;
31262;SDS011;17892;52.080;9.006;2023-02-15T15:55:24;10.68;;;5.55;;
31262;SDS011;17892;52.080;9.006;2023-02-15T15:57:53;9.52;;;5.35;;
31262;SDS011;17892;52.080;9.006;2023-02-15T16:03:16;11.05;;;6.07;;
31262;SDS011;17892;52.080;9.006;2023-02-15T16:05:49;9.95;;;5.75;;
31262;SDS011;17892;52.080;9.006;2023-02-15T16:08:29;12.00;;;6.40;;
31262;SDS011;17892;52.080;9.006;2023-02-15T16:10:56;9.80;;;5.47;;
31262;SDS011;17892;52.080;9.006;2023-02-15T16:13:24;10.63;;;6.60;;
31262;SDS011;17892;52.080;9.006;2023-02-15T16:15:54;9.70;;;5.95;;
31262;SDS011;17892;52.080;9.006;2023-02-15T16:18:24;10.60;;;5.28;;
31262;SDS011;17892;52.080;9.006;2023-02-15T16:20:53;10.82;;;5.63;;
31262;SDS011;17892;52.080;9.006;2023-02-15T16:29:31;11.13;;;6.20;;
31262;SDS011;17892;52.080;9.006;2023-02-15T16:34:58;9.38;;;5.03;;
31262;SDS011;17892;52.080;9.006;2023-02-15T16:37:28;11.38;;;5.43;;
31262;SDS011;17892;52.080;9.006;2023-02-15T16:39:58;9.68;;;5.65;;
31262;SDS011;17892;52.080;9.006;2023-02-15T16:42:24;11.07;;;6.22;;
31262;SDS011;17892;52.080;9.006;2023-02-15T16:44:55;11.85;;;6.32;;
31262;SDS011;17892;52.080;9.006;2023-02-15T16:47:35;9.73;;;5.15;;
31262;SDS011;17892;52.080;9.006;2023-02-15T16:50:19;11.02;;;5.63;;
31262;SDS011;17892;52.080;9.006;2023-02-15T16:52:49;12.25;;;6.57;;
31262;SDS011;17892;52.080;9.006;2023-02-15T16:55:21;11.18;;;6.00;;
31262;SDS011;17892;52.080;9.006;2023-02-15T16:57:50;10.60;;;6.03;;
31262;SDS011;17892;52.080;9.006;2023-02-15T17:00:21;12.90;;;6.60;;
31262;SDS011;17892;52.080;9.006;2023-02-15T17:03:01;13.18;;;7.15;;
31262;SDS011;17892;52.080;9.006;2023-02-15T17:05:53;10.65;;;6.38;;
31262;SDS011;17892;52.080;9.006;2023-02-15T17:08:32;11.18;;;6.57;;
31262;SDS011;17892;52.080;9.006;2023-02-15T17:11:10;12.40;;;7.00;;
31262;SDS011;17892;52.080;9.006;2023-02-15T17:16:27;13.32;;;7.03;;
31262;SDS011;17892;52.080;9.006;2023-02-15T17:18:58;12.25;;;6.75;;
31262;SDS011;17892;52.080;9.006;2023-02-15T17:21:30;11.80;;;5.97;;
31262;SDS011;17892;52.080;9.006;2023-02-15T17:24:01;12.00;;;6.60;;
31262;SDS011;17892;52.080;9.006;2023-02-15T17:29:18;13.23;;;7.20;;
31262;SDS011;17892;52.080;9.006;2023-02-15T17:31:54;12.35;;;6.65;;
31262;SDS011;17892;52.080;9.006;2023-02-15T17:37:14;14.10;;;7.47;;
31262;SDS011;17892;52.080;9.006;2023-02-15T17:40:22;13.15;;;7.57;;
31262;SDS011;17892;52.080;9.006;2023-02-15T17:42:50;13.13;;;7.20;;
31262;SDS011;17892;52.080;9.006;2023-02-15T17:45:17;14.02;;;7.20;;
31262;SDS011;17892;52.080;9.006;2023-02-15T17:47:43;13.65;;;6.70;;
31262;SDS011;17892;52.080;9.006;2023-02-15T17:50:23;12.80;;;7.32;;
31262;SDS011;17892;52.080;9.006;2023-02-15T17:52:51;15.40;;;7.07;;
31262;SDS011;17892;52.080;9.006;2023-02-15T17:55:20;13.20;;;7.38;;
31262;SDS011;17892;52.080;9.006;2023-02-15T17:58:00;15.27;;;8.05;;
31262;SDS011;17892;52.080;9.006;2023-02-15T18:00:29;14.48;;;7.82;;
31262;SDS011;17892;52.080;9.006;2023-02-15T18:03:15;14.60;;;7.47;;
31262;SDS011;17892;52.080;9.006;2023-02-15T18:06:00;17.67;;;8.55;;
31262;SDS011;17892;52.080;9.006;2023-02-15T18:08:45;14.48;;;7.25;;
31262;SDS011;17892;52.080;9.006;2023-02-15T18:11:29;16.73;;;8.00;;
31262;SDS011;17892;52.080;9.006;2023-02-15T18:14:01;17.05;;;7.70;;
31262;SDS011;17892;52.080;9.006;2023-02-15T18:16:30;14.15;;;7.47;;
31262;SDS011;17892;52.080;9.006;2023-02-15T18:18:59;14.75;;;7.82;;
31262;SDS011;17892;52.080;9.006;2023-02-15T18:21:25;14.88;;;7.97;;
31262;SDS011;17892;52.080;9.006;2023-02-15T18:23:51;15.45;;;8.40;;
31262;SDS011;17892;52.080;9.006;2023-02-15T18:26:23;17.27;;;7.75;;
31262;SDS011;17892;52.080;9.006;2023-02-15T18:28:51;15.68;;;7.47;;
31262;SDS011;17892;52.080;9.006;2023-02-15T18:31:17;18.58;;;8.75;;
31262;SDS011;17892;52.080;9.006;2023-02-15T18:33:44;16.30;;;7.88;;
31262;SDS011;17892;52.080;9.006;2023-02-15T18:36:29;19.73;;;9.52;;
31262;SDS011;17892;52.080;9.006;2023-02-15T18:38:58;19.98;;;10.50;;
31262;SDS011;17892;52.080;9.006;2023-02-15T18:41:25;19.67;;;9.63;;
31262;SDS011;17892;52.080;9.006;2023-02-15T18:43:51;18.73;;;8.93;;
31262;SDS011;17892;52.080;9.006;2023-02-15T18:46:18;18.30;;;9.35;;
31262;SDS011;17892;52.080;9.006;2023-02-15T18:48:44;19.00;;;9.68;;
31262;SDS011;17892;52.080;9.006;2023-02-15T18:51:15;19.15;;;9.38;;
31262;SDS011;17892;52.080;9.006;2023-02-15T18:53:46;18.38;;;8.90;;
31262;SDS011;17892;52.080;9.006;2023-02-15T18:56:15;17.23;;;8.88;;
31262;SDS011;17892;52.080;9.006;2023-02-15T18:58:43;19.73;;;8.88;;